Time;durP1;ratioP1;P1;durP2;ratioP2;P2;SDS_P1;SDS_P2;PMS_P1;PMS_P2;Temp;Humidity;BMP_temperature;BMP_pressure;BME280_temperature;BME280_humidity;BME280_pressure;Samples;Min_cycle;Max_cycle;Signal;HPM_P1;HPM_P2
2022/12/21 00:03:17;;;;;;;29.60;17.20;;;;;;;0.35;85.62;99484.61;418753;1275;142395;-69
2022/12/21 00:13:23;;;;;;;26.50;17.90;;;;;;;0.24;85.80;99450.60;425722;1280;142064;-69
2022/12/21 00:23:29;;;;;;;30.20;19.20;;;;;;;0.20;86.03;99448.80;420577;1275;142011;-69
2022/12/21 00:33:36;;;;;;;28.50;18.90;;;;;;;0.22;86.11;99471.81;422807;1281;142635;-69
2022/12/21 00:43:43;;;;;;;26.00;19.00;;;;;;;0.26;86.31;99482.40;426937;1277;142038;-70
2022/12/21 00:53:49;;;;;;;29.90;19.90;;;;;;;0.32;86.25;99482.77;429439;1279;141964;-68
2022/12/21 01:03:56;;;;;;;29.50;18.30;;;;;;;0.35;86.26;99460.14;421090;1276;142601;-70
2022/12/21 01:14:03;;;;;;;23.20;16.40;;;;;;;0.32;86.24;99413.89;424866;1282;285491;-68
2022/12/21 01:24:13;;;;;;;26.90;18.50;;;;;;;0.30;86.19;99427.20;418962;1275;141843;-68
2022/12/21 01:34:19;;;;;;;31.10;19.70;;;;;;;0.21;86.35;99425.36;422974;1281;141677;-68
2022/12/21 01:44:52;;;;;;;28.70;18.00;;;;;;;0.06;86.19;99410.23;423559;1281;143255;-69
2022/12/21 01:55:02;;;;;;;32.30;19.90;;;;;;;-0.23;86.36;99416.55;422740;1275;142008;-69
2022/12/21 02:05:19;;;;;;;27.20;18.80;;;;;;;-0.39;86.85;99425.16;426276;1281;141725;-69
2022/12/21 02:15:33;;;;;;;29.90;20.40;;;;;;;-0.54;87.12;99417.56;426666;1277;142450;-70
2022/12/21 02:26:27;;;;;;;31.10;20.50;;;;;;;-0.68;87.15;99415.96;426551;1275;142410;-69
2022/12/21 02:36:44;;;;;;;27.60;19.50;;;;;;;-0.83;87.23;99460.60;421631;1274;141972;-70
2022/12/21 02:46:59;;;;;;;27.40;18.10;;;;;;;-1.00;87.54;99446.48;424254;1277;142020;-69
2022/12/21 02:57:05;;;;;;;29.90;19.80;;;;;;;-1.06;87.83;99394.02;424604;1276;152702;-71
2022/12/21 03:07:32;;;;;;;32.30;20.10;;;;;;;-1.07;87.91;99355.21;426528;1288;141713;-69
2022/12/21 03:17:45;;;;;;;33.80;21.10;;;;;;;-1.02;87.98;99370.75;423890;1274;141528;-70
2022/12/21 03:27:55;;;;;;;30.70;19.20;;;;;;;-1.04;88.08;99366.14;421918;1278;142358;-68
2022/12/21 03:38:06;;;;;;;30.50;18.00;;;;;;;-1.05;88.08;99361.54;427085;1273;143174;-68
2022/12/21 03:48:17;;;;;;;31.10;19.20;;;;;;;-0.99;88.06;99362.63;432892;1275;142808;-68
2022/12/21 03:58:23;;;;;;;32.40;19.90;;;;;;;-0.94;88.16;99367.00;420302;1275;141797;-69
2022/12/21 04:08:31;;;;;;;31.30;19.90;;;;;;;-0.87;88.16;99357.74;423872;1281;142036;-69
2022/12/21 04:29:00;;;;;;;33.60;21.20;;;;;;;-0.92;88.09;99305.44;420615;1275;142176;-69
2022/12/21 04:39:07;;;;;;;34.40;21.90;;;;;;;-0.94;88.25;99308.21;421998;1274;142023;-69
2022/12/21 04:49:13;;;;;;;29.70;18.80;;;;;;;-0.88;88.20;99318.75;419035;1277;142179;-69
2022/12/21 04:59:19;;;;;;;27.80;19.80;;;;;;;-0.80;88.39;99309.45;423546;1275;142521;-68
2022/12/21 05:09:25;;;;;;;33.00;20.70;;;;;;;-0.70;88.46;99330.74;419166;1274;142204;-69
2022/12/21 05:19:30;;;;;;;29.30;20.50;;;;;;;-0.61;88.49;99341.54;429188;1274;142130;-69
2022/12/21 05:29:36;;;;;;;35.70;20.80;;;;;;;-0.50;88.09;99334.60;432279;1274;142000;-68
2022/12/21 05:39:42;;;;;;;30.50;19.50;;;;;;;-0.44;88.40;99333.77;419442;1272;141858;-68
2022/12/21 05:49:48;;;;;;;33.20;22.30;;;;;;;-0.38;88.31;99320.73;423030;1275;142046;-69
2022/12/21 05:59:54;;;;;;;29.70;19.20;;;;;;;-0.29;88.28;99315.70;428638;1275;142037;-68
2022/12/21 06:10:00;;;;;;;36.10;20.60;;;;;;;-0.17;88.02;99299.74;426413;1276;142029;-68
2022/12/21 06:20:08;;;;;;;33.00;22.00;;;;;;;-0.06;88.01;99297.77;421420;1275;141818;-70
2022/12/21 06:30:15;;;;;;;28.50;18.90;;;;;;;0.02;88.13;99293.45;427601;1274;142007;-70
2022/12/21 06:40:21;;;;;;;25.30;17.80;;;;;;;0.12;87.96;99304.20;423460;1282;142684;-70
2022/12/21 06:50:27;;;;;;;30.90;17.60;;;;;;;0.21;87.98;99317.91;434394;1284;142201;-70
2022/12/21 07:00:33;;;;;;;29.70;19.80;;;;;;;0.31;87.95;99311.47;435789;1281;141979;-71
2022/12/21 07:10:41;;;;;;;29.90;19.00;;;;;;;0.43;87.90;99300.31;436567;1281;140627;-71
2022/12/21 07:20:48;;;;;;;30.60;19.20;;;;;;;0.54;87.71;99298.13;436551;1282;141591;-71
2022/12/21 07:30:54;;;;;;;31.30;19.60;;;;;;;0.66;87.52;99297.09;432260;1281;141779;-71
2022/12/21 07:41:01;;;;;;;32.80;22.20;;;;;;;0.81;87.53;99306.17;423296;1278;141027;-70
2022/12/21 07:51:08;;;;;;;25.20;15.30;;;;;;;0.91;87.38;99310.34;422324;1281;144498;-72
2022/12/21 08:01:16;;;;;;;31.00;20.00;;;;;;;1.03;87.20;99306.88;422449;1282;141247;-70
2022/12/21 08:11:22;;;;;;;30.90;20.30;;;;;;;1.20;86.99;99301.23;436714;1287;142513;-70
2022/12/21 08:21:29;;;;;;;34.20;18.90;;;;;;;1.33;86.79;99298.23;435775;1281;141635;-70
2022/12/21 08:31:37;;;;;;;30.70;21.00;;;;;;;1.47;86.59;99300.92;427173;1281;141200;-70
2022/12/21 08:41:43;;;;;;;29.40;20.00;;;;;;;1.67;86.52;99297.91;436618;1281;142393;-70
2022/12/21 08:51:49;;;;;;;30.10;18.70;;;;;;;2.27;86.26;99287.26;431531;1282;141899;-70
2022/12/21 09:01:55;;;;;;;30.60;20.40;;;;;;;4.36;85.53;99271.92;428010;1274;141178;-70
2022/12/21 09:12:02;;;;;;;26.10;20.00;;;;;;;7.13;82.01;99260.27;435981;1285;141469;-70
2022/12/21 09:22:08;;;;;;;31.20;21.30;;;;;;;7.26;79.40;99262.00;436663;1274;142345;-70
2022/12/21 09:32:13;;;;;;;29.80;21.80;;;;;;;6.80;78.07;99268.48;427875;1275;141208;-69
2022/12/21 09:42:31;;;;;;;28.50;20.60;;;;;;;6.00;77.84;99273.95;431106;1274;142648;-69
2022/12/21 09:52:42;;;;;;;29.80;20.60;;;;;;;5.25;77.95;99274.25;436585;1283;141282;-70
2022/12/21 10:03:05;;;;;;;30.10;21.40;;;;;;;4.81;78.23;99267.89;436709;1287;141190;-69
2022/12/21 10:13:27;;;;;;;30.70;20.90;;;;;;;4.62;78.42;99263.90;436140;1281;141937;-70
2022/12/21 10:23:36;;;;;;;25.10;18.70;;;;;;;4.52;78.64;99265.73;435408;1277;141859;-69
2022/12/21 10:33:45;;;;;;;30.50;21.40;;;;;;;4.47;78.73;99251.05;428001;1280;142080;-70
2022/12/21 10:43:53;;;;;;;27.00;18.30;;;;;;;4.65;78.84;99246.08;436626;1274;141605;-69
2022/12/21 10:54:05;;;;;;;24.90;18.00;;;;;;;4.78;78.44;99231.29;436746;1285;140642;-70
2022/12/21 11:04:15;;;;;;;23.00;16.80;;;;;;;5.08;78.47;99223.11;436191;1281;210609;-69
2022/12/21 11:14:23;;;;;;;22.90;15.60;;;;;;;5.13;77.73;99218.06;436598;1281;141240;-69
2022/12/21 11:24:32;;;;;;;23.90;18.00;;;;;;;4.70;77.40;99208.41;435840;1285;141264;-69
2022/12/21 11:34:41;;;;;;;25.30;17.70;;;;;;;4.21;77.85;99207.45;436554;1289;140488;-69
2022/12/21 11:44:47;;;;;;;25.60;17.10;;;;;;;3.83;78.10;99186.20;436563;1282;142582;-68
2022/12/21 11:55:01;;;;;;;25.70;16.70;;;;;;;3.62;78.65;99186.91;435972;1278;142015;-68
2022/12/21 12:05:22;;;;;;;29.00;20.30;;;;;;;3.41;78.86;99180.15;436641;1281;140905;-68
2022/12/21 12:15:40;;;;;;;25.50;17.90;;;;;;;3.38;79.64;99169.53;435991;1284;141232;-68
2022/12/21 12:25:58;;;;;;;25.20;17.80;;;;;;;3.49;79.78;99168.23;436608;1288;141768;-68
2022/12/21 12:36:15;;;;;;;27.00;19.30;;;;;;;3.61;79.72;99160.30;429945;1281;142067;-68
2022/12/21 12:46:50;;;;;;;28.00;17.50;;;;;;;3.58;79.66;99151.61;436680;1283;142761;-68
2022/12/21 12:57:05;;;;;;;26.50;17.00;;;;;;;3.48;79.86;99158.40;436362;1281;141558;-68
2022/12/21 13:07:22;;;;;;;26.30;19.90;;;;;;;3.28;79.87;99150.77;436374;1281;197878;-69
2022/12/21 13:17:38;;;;;;;24.80;17.70;;;;;;;3.08;80.42;99150.86;436523;1290;170395;-69
2022/12/21 13:27:47;;;;;;;29.80;19.60;;;;;;;2.88;80.77;99151.46;431480;1281;142881;-69
2022/12/21 13:38:00;;;;;;;25.90;18.00;;;;;;;2.87;81.13;99149.26;422662;1275;141422;-68
2022/12/21 13:48:11;;;;;;;28.10;19.30;;;;;;;2.69;81.55;99144.95;434508;1282;141830;-68
2022/12/21 13:58:31;;;;;;;27.10;18.20;;;;;;;2.55;82.12;99150.84;436569;1282;141193;-69
2022/12/21 14:08:56;;;;;;;21.70;15.30;;;;;;;2.50;83.04;99146.33;436673;1282;142356;-69
2022/12/21 14:19:13;;;;;;;22.70;15.40;;;;;;;2.47;83.33;99147.33;436040;1280;142083;-70
2022/12/21 14:29:22;;;;;;;27.60;19.50;;;;;;;2.44;83.79;99146.08;436730;1281;141291;-70
2022/12/21 14:39:39;;;;;;;27.90;18.90;;;;;;;2.27;84.60;99151.17;426370;1281;140792;-70
2022/12/21 14:49:45;;;;;;;27.80;19.00;;;;;;;2.08;85.39;99153.94;436723;1287;140926;-69
2022/12/21 15:00:03;;;;;;;29.10;20.50;;;;;;;2.03;86.11;99151.88;436563;1288;141356;-69
2022/12/21 15:10:22;;;;;;;29.30;20.40;;;;;;;2.07;86.82;99147.58;430013;1281;142000;-69
2022/12/21 15:20:49;;;;;;;27.40;19.60;;;;;;;2.12;87.37;99145.17;436421;1289;141899;-71
2022/12/21 15:31:02;;;;;;;33.30;23.70;;;;;;;2.09;87.64;99143.02;435495;1285;142737;-69
2022/12/21 15:41:19;;;;;;;31.80;22.80;;;;;;;2.02;88.18;99144.81;422652;1280;143476;-69
2022/12/21 15:51:26;;;;;;;;;;;;;;;1.89;88.55;99139.07;434764;1280;141307;-69
2022/12/21 16:01:32;;;;;;;32.50;23.80;;;;;;;1.71;89.17;99139.00;436668;1287;127179;-70
2022/12/21 16:11:39;;;;;;;37.20;24.70;;;;;;;1.54;90.00;99145.27;436595;1282;141191;-70
2022/12/21 16:22:10;;;;;;;33.40;23.10;;;;;;;1.57;90.33;99139.30;435836;1287;199657;-70
2022/12/21 16:32:18;;;;;;;46.90;29.30;;;;;;;1.61;90.79;99138.48;434747;1280;140790;-70
2022/12/21 16:42:24;;;;;;;37.50;24.60;;;;;;;1.62;91.15;99139.48;422614;1281;142127;-71
2022/12/21 16:52:49;;;;;;;37.00;24.00;;;;;;;1.56;91.29;99145.40;436579;1279;142114;-71
2022/12/21 17:03:00;;;;;;;59.60;34.40;;;;;;;1.47;91.90;99140.35;436492;1276;141593;-72
2022/12/21 17:13:08;;;;;;;38.20;23.50;;;;;;;1.41;92.30;99132.61;436302;1281;142475;-72
2022/12/21 17:23:27;;;;;;;30.80;21.70;;;;;;;1.35;92.52;99121.75;436491;1289;141650;-71
2022/12/21 17:33:34;;;;;;;35.10;25.60;;;;;;;1.39;93.04;99114.89;432331;1281;141961;-71
2022/12/21 17:43:39;;;;;;;;;;;;;;;1.41;93.38;99117.60;423650;1281;141120;-71
2022/12/21 17:53:45;;;;;;;58.20;36.90;;;;;;;1.44;93.63;99113.17;423326;1281;126855;-71
2022/12/21 18:03:52;;;;;;;40.60;26.40;;;;;;;1.45;93.93;99108.31;431615;1281;141702;-70
2022/12/21 18:13:59;;;;;;;48.10;27.80;;;;;;;1.43;94.04;99109.77;436476;1274;141787;-70
2022/12/21 18:24:05;;;;;;;39.10;26.00;;;;;;;1.45;94.29;99101.41;428112;1282;153154;-70
2022/12/21 18:34:14;;;;;;;37.90;26.70;;;;;;;1.46;94.27;99086.23;422786;1279;142239;-71
2022/12/21 18:44:20;;;;;;;37.70;24.20;;;;;;;1.41;94.57;99067.23;423026;1281;141044;-71
2022/12/21 18:54:26;;;;;;;31.60;20.60;;;;;;;1.38;94.93;99087.50;431905;1281;162988;-70
2022/12/21 19:04:32;;;;;;;32.10;21.00;;;;;;;1.34;95.21;99089.38;426553;1280;142350;-73
2022/12/21 19:14:38;;;;;;;35.00;24.00;;;;;;;1.32;95.50;99083.58;423757;1281;141483;-75
2022/12/21 19:24:44;;;;;;;30.60;21.10;;;;;;;1.29;95.83;99081.94;423459;1274;141714;-76
2022/12/21 19:34:51;;;;;;;40.10;24.10;;;;;;;1.18;96.02;99092.48;424158;1281;141980;-75
2022/12/21 19:44:57;;;;;;;37.10;24.20;;;;;;;1.20;96.39;99100.37;424386;1275;142359;-75
2022/12/21 19:55:03;;;;;;;37.30;24.00;;;;;;;1.22;96.56;99095.47;423868;1275;141125;-75
2022/12/21 20:05:15;;;;;;;40.40;24.00;;;;;;;1.25;96.85;99098.27;424248;1275;142621;-76
2022/12/21 20:15:23;;;;;;;35.90;24.70;;;;;;;1.26;97.08;99101.86;423329;1275;142670;-74
2022/12/21 20:25:33;;;;;;;32.30;20.70;;;;;;;1.23;97.29;99104.38;423980;1274;142102;-76
2022/12/21 20:35:39;;;;;;;27.00;19.80;;;;;;;1.27;97.50;99100.64;424133;1275;141274;-74
2022/12/21 20:46:02;;;;;;;31.30;19.50;;;;;;;1.33;97.49;99092.84;428366;1278;202062;-75
2022/12/21 20:56:32;;;;;;;28.30;20.90;;;;;;;1.39;97.80;99087.29;436395;1280;143191;-75
2022/12/21 21:06:39;;;;;;;26.50;18.30;;;;;;;1.44;97.93;99070.25;435589;1280;142291;-75
2022/12/21 21:16:46;;;;;;;36.10;21.20;;;;;;;1.48;98.14;99067.14;436202;1282;141972;-75
2022/12/21 21:26:50;;;;;;;;;;;;;;;1.53;98.19;99066.29;435298;1281;142344;-75
2022/12/21 21:36:57;;;;;;;28.90;20.20;;;;;;;1.57;98.52;99061.17;424207;1278;128395;-74
2022/12/21 21:47:30;;;;;;;;;;;;;;;1.62;98.55;99052.17;424600;1275;142285;-74
2022/12/21 21:57:31;;;;;;;37.70;23.90;;;;;;;1.66;98.70;99050.13;435853;1279;127836;-76
2022/12/21 22:07:37;;;;;;;34.90;22.00;;;;;;;1.67;98.71;99037.83;436322;1284;143276;-75
2022/12/21 22:17:44;;;;;;;33.10;21.90;;;;;;;1.71;98.99;99046.33;436329;1278;142222;-76
2022/12/21 22:48:40;;;;;;;30.80;19.70;;;;;;;1.67;99.05;99051.13;423433;1278;142193;-74
2022/12/21 22:58:50;;;;;;;33.30;20.10;;;;;;;1.64;99.27;99049.00;424012;1281;142634;-75
2022/12/21 23:08:56;;;;;;;26.30;19.40;;;;;;;1.58;99.29;99038.20;434937;1281;142899;-75
2022/12/21 23:19:02;;;;;;;28.50;19.60;;;;;;;1.61;99.71;99029.98;435811;1281;142232;-72
2022/12/21 23:29:10;;;;;;;29.40;19.20;;;;;;;1.65;99.82;99030.68;436144;1274;141256;-72
